Ada, Ohio
Current Conditions -  °F | °C
As of 10:53 AM on Sunday 23 Nov 2014 (Local Time) from KAOH Reporting Station
Scattered Clouds Scattered Clouds  
Wind Chill: 13°   Ceiling: Unl
Heat Index: 13°   Visibility: 10mi
Dew Point:   Wind: 14mph
Humidity: 67%   Direction: 180°S
Pressure: 29.91"   Gusts: NA
Location:  40.78°N, 83.82°W
Report Text: KAOH 231553Z AUTO 18012KT 10SM SCT110 13/07 A2991 RMK AO2 SLP128 T01330072
Loading
Personal Weather Stations






























Interactive Weather Map New forecast layout! Learn more

10-Day Weather Forecast

Advertisements
Track Severe Weather on mobile